Impacts METAR Board INFO
IDs:

KLGA - New York/La Guardia, NY, US

Updated at: 1541 UTC 18 Jan 2018
Potential Impact None Slight Moderate High
Time18/03Z 18/04Z 18/05Z 18/06Z 18/07Z 18/08Z 18/09Z 18/10Z 18/11Z 18/12Z 18/13Z 18/14Z 18/15Z
VIS10 10 10 10 10 10 10 10 10 10 10 10 10
CIG21 23 -- -- -- -- -- -- -- -- -- -- --
CoverOVCBKNFEWCLRCLRCLRCLRCLRCLRCLRSCTSCTFEW
FltCatMVFRMVFRVFRVFRVFRVFRVFRVFRVFRVFRVFRVFRVFR
WX--------------------------
WDir32033032032032031033032010310300310300
WSpd15 11 12 11 12 15 11 14 7 13 13 15 8
WGst-- -- -- -- -- -- 18 -- -- -- -- -- --
Raw hourly METARs
KLGA 180251Z 32015KT 10SM OVC021 M04/M10 A3019 RMK AO2 SLP221 T10391100 53004
KLGA 180351Z 33011KT 10SM BKN023 M04/M11 A3017 RMK AO2 SLP216 T10441111
KLGA 180504Z 32012KT 10SM FEW025 FEW250 M05/M12 A3016 RMK AO2 T10501117
KLGA 180551Z 32011KT 10SM CLR M05/M12 A3014 RMK AO2 SLP205 T10501117 11022 21056 58016
KLGA 180651Z 32012KT 10SM CLR M06/M12 A3013 RMK AO2 SLP201 T10561117
KLGA 180751Z 31015KT 10SM CLR M06/M12 A3012 RMK AO2 SLP197 T10561122
KLGA 180851Z 33011G18KT 10SM CLR M06/M12 A3007 RMK AO2 PRESFR SLP180 T10611122 58024
KLGA 180951Z 32014KT 10SM CLR M06/M12 A3004 RMK AO2 SLP173 T10611122
KLGA 181051Z 01007KT 10SM CLR M06/M13 A3004 RMK AO2 SLP170 T10611128
KLGA 181151Z 31013KT 10SM CLR M06/M13 A3008 RMK AO2 SLP184 70012 T10561128 11050 21067 53003
KLGA 181251Z 30013KT 10SM FEW030 SCT250 M06/M13 A3007 RMK AO2 SLP181 T10561128
KLGA 181351Z 31015KT 10SM FEW030 SCT250 M05/M12 A3003 RMK AO2 SLP169 T10501122
KLGA 181451Z 30008KT 10SM FEW250 M04/M13 A3006 RMK AO2 SLP180 T10391133 55004